Time;durP1;ratioP1;P1;durP2;ratioP2;P2;SDS_P1;SDS_P2;PMS_P1;PMS_P2;Temp;Humidity;BMP_temperature;BMP_pressure;BME280_temperature;BME280_humidity;BME280_pressure;Samples;Min_cycle;Max_cycle;Signal;HPM_P1;HPM_P2
2022/01/23 00:02:18;;;;;;;15.15;10.68;;;;;;;19.23;47.21;101857.94;4925993;29;20043;-48
2022/01/23 00:04:34;;;;;;;15.05;10.77;;;;;;;19.23;47.01;101863.22;4921153;29;20103;-50
2022/01/23 00:07:03;;;;;;;18.80;10.77;;;;;;;19.25;46.81;101854.28;4924254;29;20056;-48
2022/01/23 00:09:30;;;;;;;16.35;10.98;;;;;;;19.25;46.69;101857.75;4927949;29;20146;-45
2022/01/23 00:11:56;;;;;;;13.20;9.35;;;;;;;19.23;46.42;101847.34;4938155;29;20445;-47
2022/01/23 00:17:17;;;;;;;18.15;10.23;;;;;;;19.21;46.97;101854.63;4929720;29;20085;-51
2022/01/23 00:19:52;;;;;;;17.83;9.50;;;;;;;19.22;47.24;101858.91;4956782;28;20043;-42
2022/01/23 00:22:20;;;;;;;13.48;8.45;;;;;;;19.23;47.41;101862.38;4960802;28;20031;-46
2022/01/23 00:30:26;;;;;;;16.02;9.45;;;;;;;19.19;47.31;101861.91;4948258;29;20050;-49
2022/01/23 00:32:51;;;;;;;16.33;9.32;;;;;;;19.19;47.23;101863.72;4942349;29;20035;-50
2022/01/23 00:35:17;;;;;;;18.13;9.50;;;;;;;19.18;47.45;101867.34;4948597;29;20035;-45
2022/01/23 00:37:43;;;;;;;14.60;9.38;;;;;;;19.17;47.10;101865.69;4942919;29;20553;-54
2022/01/23 00:40:09;;;;;;;14.95;9.27;;;;;;;19.15;47.07;101863.22;4946781;29;20041;-46
2022/01/23 00:42:35;;;;;;;18.92;8.95;;;;;;;19.14;46.86;101871.31;4943774;29;20498;-49
2022/01/23 00:45:24;;;;;;;23.50;10.13;;;;;;;19.12;46.83;101871.47;4939238;29;20046;-48
2022/01/23 00:47:50;;;;;;;15.82;9.68;;;;;;;19.10;46.36;101868.19;4943609;28;20047;-46
2022/01/23 00:50:15;;;;;;;18.77;9.57;;;;;;;19.10;46.42;101862.88;4967715;28;20382;-47
2022/01/23 00:52:41;;;;;;;13.38;8.82;;;;;;;19.08;46.28;101858.75;4952833;28;20051;-47
2022/01/23 00:55:07;;;;;;;14.45;8.90;;;;;;;19.07;45.93;101868.50;4948521;29;20043;-46
2022/01/23 00:57:33;;;;;;;16.42;9.38;;;;;;;19.05;45.69;101865.19;4948429;29;20069;-46
2022/01/23 01:00:00;;;;;;;20.70;9.45;;;;;;;19.05;45.75;101867.84;4931756;29;20558;-44
2022/01/23 01:02:25;;;;;;;13.90;9.60;;;;;;;19.03;45.67;101861.06;4951743;29;20110;-51
2022/01/23 01:04:51;;;;;;;16.02;9.88;;;;;;;19.01;45.60;101863.88;4940183;28;20182;-43
2022/01/23 01:07:16;;;;;;;15.95;10.15;;;;;;;19.00;45.55;101871.97;4961459;28;20085;-48
2022/01/23 01:09:48;;;;;;;18.67;10.45;;;;;;;19.00;45.56;101879.91;4959628;28;20114;-47
2022/01/23 01:12:19;;;;;;;15.45;9.68;;;;;;;18.98;45.47;101876.59;4968713;28;20031;-47
2022/01/23 01:33:50;;;;;;;18.10;10.90;;;;;;;18.90;44.67;101882.72;4967938;28;20035;-43
2022/01/23 01:36:35;;;;;;;15.98;9.98;;;;;;;18.86;44.67;101890.16;4968983;28;20498;-44
2022/01/23 01:39:04;;;;;;;17.55;11.07;;;;;;;18.84;44.59;101894.75;4951654;28;20035;-42
2022/01/23 01:41:29;;;;;;;14.88;9.65;;;;;;;18.84;44.41;101884.19;4955235;28;20031;-49
2022/01/23 01:43:56;;;;;;;14.23;10.00;;;;;;;18.83;44.40;101877.28;4932925;29;20424;-50
2022/01/23 01:46:22;;;;;;;16.63;10.02;;;;;;;18.83;44.41;101885.19;4947516;29;20252;-43
2022/01/23 01:48:48;;;;;;;13.27;9.90;;;;;;;18.82;44.42;101885.34;4970506;28;20041;-52
2022/01/23 01:51:16;;;;;;;14.55;10.52;;;;;;;18.82;44.49;101888.00;4966218;28;20471;-47
2022/01/23 01:53:48;;;;;;;15.45;10.90;;;;;;;18.80;44.30;101882.06;4970695;28;20039;-46
2022/01/23 01:56:15;;;;;;;16.38;10.15;;;;;;;18.78;44.11;101884.84;4968139;28;20030;-48
2022/01/23 02:02:47;;;;;;;12.98;9.48;;;;;;;18.76;44.09;101884.19;4963429;28;20602;-46
2022/01/23 02:09:16;;;;;;;15.05;10.00;;;;;;;18.71;44.22;101873.28;4950420;29;20150;-46
2022/01/23 02:14:34;;;;;;;14.50;9.25;;;;;;;18.72;44.11;101877.59;4950811;29;20048;-44
2022/01/23 02:25:16;;;;;;;12.65;9.70;;;;;;;18.68;43.77;101889.47;4950608;29;20089;-46
2022/01/23 02:55:08;;;;;;;10.80;8.20;;;;;;;18.58;43.40;101857.91;4950260;29;20039;-47
2022/01/23 02:57:52;;;;;;;10.43;8.38;;;;;;;18.56;43.32;101854.59;4949894;29;20406;-47
2022/01/23 03:00:19;;;;;;;11.20;8.65;;;;;;;18.54;43.37;101851.28;4931224;28;20037;-48
2022/01/23 03:02:51;;;;;;;12.52;9.45;;;;;;;18.54;43.25;101853.09;4931697;29;20578;-45
2022/01/23 03:05:34;;;;;;;11.88;9.18;;;;;;;18.53;43.17;101854.91;4932108;29;20059;-50
2022/01/23 03:10:35;;;;;;;12.45;8.52;;;;;;;18.51;43.05;101842.88;4949928;29;20046;-46
2022/01/23 03:24:07;;;;;;;11.57;8.10;;;;;;;18.48;43.17;101845.84;4949977;29;20235;-45
2022/01/23 03:24:23;;;;;;;10.48;7.82;;;;;;;18.43;42.89;101853.44;4949758;29;20053;-48
2022/01/23 03:27:02;;;;;;;10.25;7.68;;;;;;;18.42;42.84;101854.44;4948142;29;20031;-47
2022/01/23 03:29:40;;;;;;;8.20;6.95;;;;;;;18.42;42.84;101847.34;4949738;29;20136;-48
2022/01/23 03:32:43;;;;;;;9.15;7.22;;;;;;;18.43;42.71;101848.16;4949945;28;20038;-50
2022/01/23 03:34:57;;;;;;;8.05;6.70;;;;;;;18.40;42.64;101844.03;4948175;29;20368;-50
2022/01/23 03:37:23;;;;;;;8.05;6.43;;;;;;;18.41;42.68;101855.41;4949602;29;20042;-44
2022/01/23 03:39:48;;;;;;;11.00;6.50;;;;;;;18.40;42.68;101854.59;4949564;29;20077;-51
2022/01/23 03:42:14;;;;;;;9.80;6.32;;;;;;;18.39;42.85;101846.84;4949388;29;20058;-47
2022/01/23 03:44:47;;;;;;;6.45;5.47;;;;;;;18.38;42.66;101855.75;4948286;28;20118;-48
2022/01/23 03:47:35;;;;;;;10.38;7.00;;;;;;;18.39;42.75;101854.75;4948793;29;20049;-49
2022/01/23 03:50:02;;;;;;;7.10;5.78;;;;;;;18.36;42.66;101842.72;4949570;29;20035;-44
2022/01/23 03:52:27;;;;;;;9.00;5.97;;;;;;;18.36;42.57;101847.16;4949255;29;20391;-47
2022/01/23 03:54:54;;;;;;;6.82;5.38;;;;;;;18.34;42.64;101846.50;4949083;29;20027;-51
2022/01/23 03:57:19;;;;;;;8.15;5.20;;;;;;;18.33;42.55;101843.03;4949132;29;20105;-43
2022/01/23 03:59:44;;;;;;;5.72;4.97;;;;;;;18.32;42.62;101845.81;4948890;29;20033;-46
2022/01/23 04:02:10;;;;;;;5.85;5.10;;;;;;;18.31;42.72;101844.19;4949120;29;20062;-51
2022/01/23 04:04:42;;;;;;;5.65;4.70;;;;;;;18.31;42.63;101844.19;4948842;28;20030;-43
2022/01/23 04:07:21;;;;;;;5.88;4.75;;;;;;;18.26;42.61;101849.94;4949004;29;20565;-46
2022/01/23 04:09:47;;;;;;;5.82;4.55;;;;;;;18.26;42.41;101847.28;4947668;29;20553;-45
2022/01/23 04:45:19;;;;;;;6.60;4.25;;;;;;;18.19;42.51;101852.38;4911723;29;20527;-48
2022/01/23 05:04:28;;;;;;;5.72;4.00;;;;;;;18.12;42.29;101847.91;4950865;29;20097;-45
2022/01/23 05:07:03;;;;;;;5.65;3.13;;;;;;;18.10;42.28;101849.88;4950857;28;20100;-52
2022/01/23 05:09:30;;;;;;;4.53;3.63;;;;;;;18.08;42.16;101847.41;4948288;29;20106;-42
2022/01/23 05:12:02;;;;;;;3.30;3.00;;;;;;;18.07;42.06;101845.75;4950970;29;20039;-43
2022/01/23 05:14:36;;;;;;;4.30;3.45;;;;;;;18.07;42.06;101853.66;4950630;29;20027;-46
2022/01/23 05:17:03;;;;;;;4.00;3.50;;;;;;;18.06;42.03;101853.81;4951182;29;20039;-45
2022/01/23 05:19:29;;;;;;;5.40;3.42;;;;;;;18.06;41.86;101856.47;4950794;29;20023;-44
2022/01/23 05:24:25;;;;;;;3.70;3.28;;;;;;;18.02;41.83;101855.94;4950968;29;20036;-46
2022/01/23 05:26:58;;;;;;;4.45;3.25;;;;;;;18.00;41.81;101857.91;4950612;29;20114;-42
2022/01/23 05:29:24;;;;;;;3.42;3.08;;;;;;;18.01;41.81;101864.03;4950490;29;20062;-51
2022/01/23 05:31:51;;;;;;;3.97;2.97;;;;;;;17.99;41.93;101864.19;4948970;29;20304;-45
2022/01/23 05:34:16;;;;;;;4.22;3.10;;;;;;;17.98;41.88;101865.16;4948765;29;20371;-46
2022/01/23 05:36:42;;;;;;;3.95;2.95;;;;;;;17.98;41.88;101865.16;4949745;29;20041;-40
2022/01/23 05:39:07;;;;;;;3.05;2.63;;;;;;;17.97;41.86;101855.59;4950566;29;20031;-45
2022/01/23 05:41:33;;;;;;;3.63;3.05;;;;;;;17.96;41.87;101872.41;4949976;29;20471;-51
2022/01/23 05:44:00;;;;;;;4.32;2.70;;;;;;;17.94;41.87;101858.59;4950119;29;20362;-49
2022/01/23 05:46:26;;;;;;;4.10;2.95;;;;;;;17.94;41.63;101871.75;4948283;28;20058;-46
2022/01/23 05:48:51;;;;;;;3.30;2.70;;;;;;;17.92;42.38;101868.47;4949878;29;20062;-50
2022/01/23 05:51:17;;;;;;;4.13;2.75;;;;;;;17.92;42.24;101867.63;4950260;29;20035;-42
2022/01/23 05:53:42;;;;;;;4.50;3.20;;;;;;;17.92;42.08;101863.19;4950455;29;20027;-43
2022/01/23 05:56:08;;;;;;;3.30;2.60;;;;;;;17.90;42.14;101863.34;4948831;29;20032;-42
2022/01/23 05:58:33;;;;;;;2.55;1.92;;;;;;;17.92;42.11;101863.19;4950080;29;20449;-43
2022/01/23 06:01:00;;;;;;;3.65;2.17;;;;;;;17.92;41.94;101865.81;4949131;29;20261;-50
2022/01/23 06:03:25;;;;;;;6.38;3.00;;;;;;;17.91;42.06;101866.81;4949151;29;20091;-43
2022/01/23 06:05:51;;;;;;;2.92;2.45;;;;;;;17.90;41.82;101868.63;4914744;28;1304395;-43
2022/01/23 06:08:16;;;;;;;4.63;2.25;;;;;;;17.91;41.69;101872.09;4970146;28;20130;-47
2022/01/23 06:11:15;;;;;;;3.05;1.92;;;;;;;17.90;41.80;101873.06;4969600;28;20080;-50
2022/01/23 06:13:34;;;;;;;3.33;2.40;;;;;;;17.90;41.70;101878.34;4963599;28;20366;-45
2022/01/23 06:15:59;;;;;;;2.33;1.67;;;;;;;17.89;41.75;101881.97;4969938;28;20062;-44
2022/01/23 06:18:25;;;;;;;3.03;2.00;;;;;;;17.92;41.85;101888.72;4970203;28;20031;-43
2022/01/23 06:20:51;;;;;;;2.75;1.80;;;;;;;17.92;42.18;101889.56;4963995;28;20561;-43
2022/01/23 06:23:17;;;;;;;2.63;1.75;;;;;;;17.93;41.87;101895.66;4970073;28;20557;-44
2022/01/23 06:25:45;;;;;;;2.42;1.52;;;;;;;17.96;41.83;101900.63;4970263;28;20410;-42
2022/01/23 06:28:14;;;;;;;3.47;1.80;;;;;;;17.99;41.71;101895.00;4970283;28;20058;-39
2022/01/23 06:30:40;;;;;;;2.67;1.73;;;;;;;18.02;41.70;101884.13;4952192;28;20845;-44
2022/01/23 06:33:06;;;;;;;2.58;1.50;;;;;;;18.07;41.65;101892.41;4952355;28;20031;-44
2022/01/23 06:35:33;;;;;;;3.13;2.17;;;;;;;18.11;41.47;101886.66;4969745;28;20497;-42
2022/01/23 06:37:58;;;;;;;3.78;1.85;;;;;;;18.16;41.39;101899.34;4969431;28;20154;-45
2022/01/23 06:40:24;;;;;;;2.03;1.83;;;;;;;18.20;41.48;101895.41;4968592;28;20117;-41
2022/01/23 06:42:49;;;;;;;2.75;1.80;;;;;;;18.23;41.37;101901.19;4967862;28;20049;-42
2022/01/23 06:45:15;;;;;;;2.47;1.88;;;;;;;18.29;41.53;101901.56;4955894;28;20038;-47
2022/01/23 06:47:41;;;;;;;3.67;2.05;;;;;;;18.32;41.29;101901.22;4950370;29;20042;-46
2022/01/23 06:50:07;;;;;;;2.90;2.13;;;;;;;18.35;41.27;101908.81;4957487;28;20102;-40
2022/01/23 06:52:32;;;;;;;3.08;1.90;;;;;;;18.39;41.18;101910.16;4967196;28;20082;-46
2022/01/23 06:54:58;;;;;;;3.33;1.50;;;;;;;18.43;41.20;101911.50;4969218;28;20039;-45
2022/01/23 06:57:23;;;;;;;2.17;1.50;;;;;;;18.46;41.23;101919.88;4961193;28;20027;-46
2022/01/23 06:59:49;;;;;;;3.45;1.48;;;;;;;18.50;41.18;101918.59;4949932;28;20035;-41
2022/01/23 07:02:15;;;;;;;1.92;1.60;;;;;;;18.52;41.19;101916.59;4964996;28;20042;-46
2022/01/23 07:04:40;;;;;;;2.45;1.67;;;;;;;18.56;41.33;101917.13;4967297;28;20027;-46
2022/01/23 07:07:06;;;;;;;2.55;1.90;;;;;;;18.59;41.18;101924.72;4967553;28;20550;-49
2022/01/23 07:09:32;;;;;;;3.33;1.50;;;;;;;18.64;41.25;101927.72;4962074;28;20023;-51
2022/01/23 07:11:57;;;;;;;2.88;1.80;;;;;;;18.69;41.13;101933.34;4960678;28;20027;-48
2022/01/23 07:14:23;;;;;;;2.72;1.73;;;;;;;18.74;41.20;101933.69;4965493;28;20332;-44
2022/01/23 07:16:48;;;;;;;2.00;1.67;;;;;;;18.79;41.33;101938.50;4962171;28;20391;-47
2022/01/23 07:19:14;;;;;;;4.80;1.80;;;;;;;18.84;41.39;101936.19;4967523;28;20719;-41
2022/01/23 07:21:40;;;;;;;1.50;1.15;;;;;;;18.88;41.41;101942.78;4967428;28;20126;-48
2022/01/23 07:24:06;;;;;;;6.00;1.50;;;;;;;18.90;41.25;101933.69;4968090;28;20031;-46
2022/01/23 07:26:33;;;;;;;3.67;1.88;;;;;;;18.95;41.30;101948.22;4968742;28;20450;-44
2022/01/23 07:29:01;;;;;;;2.45;1.58;;;;;;;18.98;41.29;101953.19;4967975;28;20039;-42
2022/01/23 07:34:01;;;;;;;2.80;1.13;;;;;;;19.01;41.33;101952.84;4961862;28;20541;-50
2022/01/23 07:36:26;;;;;;;2.15;1.58;;;;;;;19.04;41.44;101952.53;4966398;28;20340;-41
2022/01/23 07:38:53;;;;;;;3.00;1.40;;;;;;;19.07;41.32;101962.78;4949024;29;20046;-46
2022/01/23 07:41:18;;;;;;;2.10;1.35;;;;;;;19.10;41.36;101962.44;4964385;28;20073;-43
2022/01/23 07:43:44;;;;;;;3.33;1.30;;;;;;;19.11;41.26;101958.81;4968560;28;20110;-43
2022/01/23 07:46:09;;;;;;;1.80;1.10;;;;;;;19.15;41.29;101954.84;4965338;28;20023;-44
2022/01/23 07:48:35;;;;;;;2.08;0.95;;;;;;;19.17;41.12;101951.06;4967462;28;20459;-44
2022/01/23 07:51:00;;;;;;;2.80;1.55;;;;;;;19.19;41.13;101950.91;4968744;28;20031;-44
2022/01/23 07:53:26;;;;;;;2.08;1.38;;;;;;;19.21;41.05;101947.09;4968329;28;20257;-45
2022/01/23 07:55:51;;;;;;;1.95;1.10;;;;;;;19.25;41.08;101950.25;4968141;28;20035;-45
2022/01/23 07:58:18;;;;;;;2.45;1.75;;;;;;;19.27;40.98;101952.72;4965790;28;20474;-45
2022/01/23 08:00:44;;;;;;;2.53;1.20;;;;;;;19.29;40.93;101954.22;4967818;28;20023;-41
2022/01/23 08:03:10;;;;;;;1.80;1.17;;;;;;;19.32;40.95;101959.16;4968337;28;20092;-46
2022/01/23 08:05:36;;;;;;;1.55;1.20;;;;;;;19.34;40.86;101965.09;4958167;28;20097;-44
2022/01/23 08:08:02;;;;;;;2.45;1.40;;;;;;;19.37;40.85;101958.66;4948768;28;20529;-42
2022/01/23 08:10:28;;;;;;;1.80;1.10;;;;;;;19.38;40.72;101966.41;4948671;29;20027;-44
2022/01/23 08:12:53;;;;;;;2.22;1.20;;;;;;;19.41;40.78;101976.63;4948463;29;20357;-42
2022/01/23 08:15:19;;;;;;;2.95;1.30;;;;;;;19.44;40.77;101975.47;4948027;29;20039;-47
2022/01/23 08:17:44;;;;;;;2.00;1.25;;;;;;;19.46;40.68;101992.84;4947744;29;20031;-46
2022/01/23 08:20:10;;;;;;;1.33;1.17;;;;;;;19.49;40.62;101996.97;4948577;29;20062;-44
2022/01/23 08:22:35;;;;;;;1.67;1.00;;;;;;;19.49;40.59;101995.16;4948846;28;20030;-44
2022/01/23 08:25:02;;;;;;;3.25;1.60;;;;;;;19.53;40.63;101993.03;4959338;28;20034;-44
2022/01/23 08:27:28;;;;;;;2.05;1.23;;;;;;;19.55;40.52;102002.44;4926030;29;20399;-43
2022/01/23 08:29:53;;;;;;;2.67;1.50;;;;;;;19.58;40.59;102001.28;4948355;29;20047;-40
2022/01/23 08:32:19;;;;;;;2.85;1.67;;;;;;;19.59;40.63;102004.75;4947631;29;20163;-43
2022/01/23 08:34:45;;;;;;;1.83;1.20;;;;;;;19.62;40.51;102009.72;4946953;29;20031;-42
2022/01/23 08:37:11;;;;;;;1.55;0.95;;;;;;;19.66;40.54;102021.63;4946509;29;20041;-46
2022/01/23 08:39:38;;;;;;;3.17;1.70;;;;;;;19.68;40.54;102003.75;4947377;29;20298;-47
2022/01/23 08:42:06;;;;;;;2.20;0.90;;;;;;;19.71;40.38;102006.06;4945776;28;20078;-49
2022/01/23 08:44:31;;;;;;;1.75;1.10;;;;;;;19.73;40.22;102012.84;4929302;29;20107;-45
2022/01/23 08:46:57;;;;;;;3.30;1.40;;;;;;;19.75;40.48;102012.69;4943791;29;20130;-50
2022/01/23 08:49:24;;;;;;;2.65;1.20;;;;;;;19.78;40.18;102013.19;4946379;29;20114;-43
2022/01/23 08:51:52;;;;;;;2.90;1.05;;;;;;;19.80;40.01;102015.66;4948168;29;20038;-45
2022/01/23 08:54:17;;;;;;;1.80;0.90;;;;;;;19.82;40.09;102016.31;4947522;29;20399;-45
2022/01/23 08:56:43;;;;;;;2.90;1.27;;;;;;;19.81;40.15;102012.84;4946146;29;20032;-42
2022/01/23 08:59:09;;;;;;;3.25;0.95;;;;;;;19.84;40.04;102019.63;4944442;28;20027;-48
2022/01/23 09:01:35;;;;;;;4.45;1.40;;;;;;;19.87;40.28;102016.59;4947657;29;20027;-44
2022/01/23 09:04:02;;;;;;;2.22;1.40;;;;;;;19.88;40.26;102020.91;4944613;28;20061;-43
2022/01/23 09:06:27;;;;;;;4.35;1.00;;;;;;;19.99;40.56;102019.75;4942549;28;20151;-45
2022/01/23 09:08:54;;;;;;;2.80;0.90;;;;;;;20.07;40.84;102027.66;4944243;29;20415;-44
2022/01/23 09:14:06;;;;;;;3.92;1.00;;;;;;;20.16;41.58;102016.91;4945709;29;20380;-44
2022/01/23 09:16:50;;;;;;;5.30;2.20;;;;;;;20.18;42.11;102025.50;4946485;28;20495;-43
2022/01/23 09:19:18;;;;;;;8.18;1.50;;;;;;;20.19;42.53;102024.50;4948687;28;20430;-51
2022/01/23 09:21:45;;;;;;;7.72;1.40;;;;;;;20.21;43.19;102030.44;4950574;28;20483;-51
2022/01/23 09:24:10;;;;;;;4.15;1.27;;;;;;;20.23;43.51;102026.81;4951573;29;20476;-42
2022/01/23 09:26:37;;;;;;;4.97;1.40;;;;;;;20.23;43.66;102024.16;4951405;29;20034;-49
2022/01/23 09:29:12;;;;;;;3.03;1.10;;;;;;;20.24;43.69;102025.81;4934130;29;20027;-46
2022/01/23 09:31:50;;;;;;;;;;;;;;;20.11;44.86;102032.44;4930582;29;20047;-43
2022/01/23 09:34:21;;;;;;;7.45;1.60;;;;;;;20.13;44.15;102040.22;4950926;29;19965;-51
2022/01/23 09:36:47;;;;;;;7.10;1.50;;;;;;;20.09;44.73;102042.38;4949333;29;20035;-47
2022/01/23 09:39:15;;;;;;;3.83;1.17;;;;;;;20.08;44.06;102050.47;4950375;29;20517;-43
2022/01/23 09:42:05;;;;;;;5.90;1.63;;;;;;;20.05;44.81;102053.47;4931975;29;20031;-43
2022/01/23 09:44:37;;;;;;;4.97;1.30;;;;;;;20.00;44.78;102051.31;4938827;29;20059;-44
2022/01/23 09:47:03;;;;;;;2.83;1.58;;;;;;;20.04;45.01;102052.63;4946683;29;20646;-48
2022/01/23 09:49:31;;;;;;;3.00;1.13;;;;;;;20.12;44.76;102051.78;4950593;29;20038;-47
2022/01/23 09:52:00;;;;;;;17.50;3.42;;;;;;;20.19;45.96;102045.66;4950618;29;20054;-44
2022/01/23 09:54:29;;;;;;;9.90;3.45;;;;;;;20.16;45.94;102040.72;4949013;29;20090;-43
2022/01/23 09:57:00;;;;;;;6.15;2.17;;;;;;;20.11;45.28;102035.09;4944094;28;20041;-40
2022/01/23 09:59:27;;;;;;;4.18;1.90;;;;;;;20.07;45.05;102030.31;4944343;29;20094;-42
2022/01/23 10:01:55;;;;;;;7.20;2.05;;;;;;;20.03;44.78;102024.53;4949452;29;20059;-43
2022/01/23 10:04:22;;;;;;;5.55;1.40;;;;;;;19.99;44.64;102032.97;4932514;29;20438;-44
2022/01/23 10:06:48;;;;;;;6.45;1.40;;;;;;;19.95;44.61;102026.34;4949398;28;20082;-45
2022/01/23 10:09:14;;;;;;;9.02;1.55;;;;;;;19.92;44.57;102032.81;4969505;28;20034;-42
2022/01/23 10:11:42;;;;;;;3.25;1.45;;;;;;;19.87;44.41;102032.47;4969965;28;20661;-43
2022/01/23 10:14:08;;;;;;;8.27;2.00;;;;;;;19.85;44.18;102026.53;4961542;28;20031;-46
2022/01/23 10:16:34;;;;;;;1.98;1.40;;;;;;;19.82;44.17;102034.81;4954397;28;20110;-47
2022/01/23 10:19:01;;;;;;;7.85;1.20;;;;;;;19.81;44.64;102035.81;4963207;28;20364;-43
2022/01/23 10:21:31;;;;;;;6.35;1.80;;;;;;;19.81;44.67;102025.25;4966004;28;20534;-44
2022/01/23 10:23:56;;;;;;;2.30;0.95;;;;;;;19.79;44.79;102032.53;4964099;28;20077;-43
2022/01/23 10:26:37;;;;;;;3.47;1.20;;;;;;;19.74;44.75;102018.97;4968375;28;20034;-44
2022/01/23 10:29:22;;;;;;;4.93;1.30;;;;;;;19.72;44.75;102016.50;4959351;28;20027;-46
2022/01/23 10:32:04;;;;;;;4.45;1.17;;;;;;;19.75;44.63;102004.75;4965931;28;20064;-45
2022/01/23 10:35:00;;;;;;;3.92;1.55;;;;;;;19.75;44.63;101994.19;4970247;28;20070;-48
2022/01/23 10:37:36;;;;;;;5.17;1.70;;;;;;;19.74;44.41;101988.06;4953023;28;20127;-43
2022/01/23 10:40:09;;;;;;;6.03;1.25;;;;;;;19.74;44.18;101981.94;4969714;28;20050;-43
2022/01/23 10:48:23;;;;;;;6.75;1.50;;;;;;;19.70;44.17;101978.81;4963367;28;20055;-43
2022/01/23 10:50:39;;;;;;;3.47;0.75;;;;;;;19.69;44.04;101981.63;4976864;28;20126;-46
2022/01/23 10:53:05;;;;;;;6.45;1.45;;;;;;;19.71;43.95;101977.00;4967991;28;20141;-45
2022/01/23 10:55:35;;;;;;;3.10;1.20;;;;;;;19.71;44.36;101969.06;4967846;28;20070;-44
2022/01/23 10:58:06;;;;;;;2.22;1.17;;;;;;;19.74;44.45;101966.91;4966126;28;20487;-42
2022/01/23 11:00:39;;;;;;;3.17;1.30;;;;;;;19.75;45.04;101973.84;4962791;28;20039;-43
2022/01/23 11:03:22;;;;;;;3.67;1.40;;;;;;;19.76;45.11;101969.38;4962705;28;20026;-53
2022/01/23 11:05:53;;;;;;;2.55;1.38;;;;;;;19.77;44.97;101971.03;4946684;28;20187;-40
2022/01/23 11:08:19;;;;;;;5.00;1.23;;;;;;;19.77;44.89;101963.94;4931759;29;20023;-44
2022/01/23 11:10:56;;;;;;;2.63;0.93;;;;;;;19.76;44.47;101962.28;4940696;29;20086;-45
2022/01/23 11:19:35;;;;;;;4.00;1.42;;;;;;;19.71;44.17;101956.66;4949570;29;20053;-46
2022/01/23 11:22:03;;;;;;;1.83;0.93;;;;;;;19.70;43.78;101944.44;4925808;29;20054;-44
2022/01/23 11:24:45;;;;;;;3.65;1.30;;;;;;;19.67;43.81;101946.59;4944431;29;20105;-41
2022/01/23 11:27:12;;;;;;;2.50;0.70;;;;;;;19.65;43.72;101938.81;4945459;29;20035;-44
2022/01/23 11:29:57;;;;;;;4.50;1.13;;;;;;;19.63;44.04;101939.97;4944777;29;20379;-49
2022/01/23 11:32:25;;;;;;;4.40;1.40;;;;;;;19.62;44.10;101930.41;4943371;29;20767;-42
2022/01/23 11:35:06;;;;;;;5.45;1.20;;;;;;;19.63;44.36;101932.06;4925783;29;20467;-46
2022/01/23 11:37:33;;;;;;;1.67;1.05;;;;;;;19.61;44.52;101926.09;4944436;29;20035;-41
2022/01/23 11:40:05;;;;;;;3.00;1.20;;;;;;;19.60;44.44;101916.53;4932797;29;20035;-43
2022/01/23 11:53:42;;;;;;;2.42;1.30;;;;;;;19.43;44.87;101915.69;4944539;28;19992;-43
2022/01/23 11:54:00;;;;;;;6.53;1.70;;;;;;;19.42;45.50;101914.03;4940445;28;20045;-41
2022/01/23 11:59:13;;;;;;;2.75;1.20;;;;;;;19.40;45.88;101902.81;4946848;29;20053;-47
2022/01/23 12:01:40;;;;;;;1.95;1.52;;;;;;;19.39;46.37;101899.34;4947074;29;20494;-51
2022/01/23 12:04:06;;;;;;;2.78;1.52;;;;;;;19.38;46.33;101897.69;4945449;29;20043;-44
2022/01/23 12:06:32;;;;;;;3.53;1.45;;;;;;;19.37;46.56;101901.34;4960199;28;20069;-45
2022/01/23 12:09:09;;;;;;;7.93;1.50;;;;;;;19.37;47.74;101896.06;4960965;28;20125;-47
2022/01/23 12:16:58;;;;;;;7.82;2.42;;;;;;;19.73;50.94;101882.47;4961793;28;20038;-44
2022/01/23 12:19:29;;;;;;;4.68;3.45;;;;;;;19.89;55.48;101882.38;4949989;28;20487;-54
2022/01/23 12:21:56;;;;;;;9.23;2.40;;;;;;;20.03;58.08;101886.97;4948348;28;20035;-51
2022/01/23 12:24:24;;;;;;;10.20;3.10;;;;;;;20.14;60.51;101873.34;4966674;28;20072;-49
2022/01/23 12:26:52;;;;;;;10.63;3.45;;;;;;;20.26;64.99;101870.31;4961204;28;20031;-49
2022/01/23 12:29:26;;;;;;;10.30;3.45;;;;;;;20.36;66.28;101866.44;4965355;28;20022;-42
2022/01/23 12:32:16;;;;;;;6.63;2.50;;;;;;;20.33;63.58;101856.19;4964062;28;20035;-47
2022/01/23 12:34:47;;;;;;;6.75;2.72;;;;;;;20.42;64.44;101857.81;4965292;28;20034;-51
2022/01/23 12:37:13;;;;;;;12.45;3.03;;;;;;;20.45;63.63;101843.41;4948698;28;20223;-46
2022/01/23 12:39:38;;;;;;;4.55;2.38;;;;;;;20.34;62.47;101835.84;4963041;28;20023;-41
2022/01/23 12:42:05;;;;;;;6.82;1.85;;;;;;;20.19;60.89;101833.97;4958393;28;20648;-43
2022/01/23 12:44:39;;;;;;;3.35;1.80;;;;;;;20.06;60.25;101822.28;4963817;28;20050;-48
2022/01/23 12:47:26;;;;;;;9.98;1.60;;;;;;;19.98;59.26;101814.41;4949778;28;20070;-49
2022/01/23 12:49:52;;;;;;;2.42;1.00;;;;;;;19.90;58.32;101817.91;4965530;28;20042;-48
2022/01/23 12:52:23;;;;;;;2.70;1.10;;;;;;;19.83;57.12;101824.91;4962158;28;20048;-48
2022/01/23 12:54:51;;;;;;;5.32;1.75;;;;;;;19.80;56.22;101817.31;4949856;28;20049;-48
2022/01/23 12:57:25;;;;;;;4.05;1.70;;;;;;;19.76;55.54;101823.94;4951918;28;20177;-46
2022/01/23 12:59:52;;;;;;;2.95;1.73;;;;;;;19.74;54.87;101815.34;4969325;28;20042;-42
2022/01/23 13:02:19;;;;;;;3.30;1.48;;;;;;;19.71;54.52;101818.34;4952979;28;20406;-48
2022/01/23 13:04:47;;;;;;;2.60;1.20;;;;;;;19.68;53.96;101806.28;4962652;28;20042;-43
2022/01/23 13:07:25;;;;;;;2.40;1.30;;;;;;;19.67;53.29;101798.53;4952580;28;20038;-46
2022/01/23 13:09:57;;;;;;;4.43;0.95;;;;;;;19.67;53.06;101795.88;4950482;28;20046;-45
2022/01/23 13:15:38;;;;;;;2.97;1.15;;;;;;;19.64;52.27;101790.94;4965315;28;20043;-43
2022/01/23 13:31:17;;;;;;;7.57;1.15;;;;;;;19.52;51.06;101791.31;4968141;28;20041;-49
2022/01/23 13:33:42;;;;;;;4.95;1.13;;;;;;;19.51;51.08;101797.59;4969022;28;20031;-44
2022/01/23 13:36:10;;;;;;;3.05;0.82;;;;;;;19.49;51.03;101794.25;4950972;28;20112;-44
2022/01/23 13:38:37;;;;;;;4.00;0.80;;;;;;;19.47;50.72;101792.78;4952426;28;20968;-51
2022/01/23 13:41:24;;;;;;;6.38;1.20;;;;;;;19.44;50.54;101793.13;4947861;28;20026;-50
2022/01/23 13:58:27;;;;;;;5.85;2.00;;;;;;;19.31;50.52;101783.09;4944395;28;20147;-51
2022/01/23 14:01:09;;;;;;;5.72;1.88;;;;;;;19.29;50.44;101784.28;4929106;29;20465;-47
2022/01/23 14:03:35;;;;;;;5.15;2.38;;;;;;;19.30;50.51;101789.38;4948112;29;20031;-58
2022/01/23 14:06:02;;;;;;;7.32;2.75;;;;;;;19.40;51.83;101791.81;4977895;23;20060;-55
2022/01/23 14:08:27;;;;;;;7.43;2.40;;;;;;;19.48;52.45;101778.56;5024311;28;20555;-49
2022/01/23 14:10:53;;;;;;;8.48;3.50;;;;;;;19.58;54.12;101771.28;5022917;28;20030;-49
2022/01/23 14:13:19;;;;;;;7.22;3.33;;;;;;;19.53;53.28;101771.81;5016459;28;20379;-47
2022/01/23 14:15:53;;;;;;;7.03;1.83;;;;;;;19.43;52.20;101778.25;5005009;28;20094;-45
2022/01/23 14:18:30;;;;;;;6.80;1.48;;;;;;;19.33;51.24;101775.84;5020497;28;20042;-55
2022/01/23 14:21:03;;;;;;;7.72;2.67;;;;;;;19.31;50.94;101785.75;5022566;28;20036;-52
2022/01/23 14:23:29;;;;;;;5.75;2.17;;;;;;;19.30;50.51;101781.47;5023686;28;20057;-53
2022/01/23 14:26:01;;;;;;;5.35;2.33;;;;;;;19.30;50.20;101780.63;5023821;28;20670;-45
2022/01/23 14:28:48;;;;;;;6.32;2.67;;;;;;;19.26;49.64;101777.50;5027789;28;20029;-45
2022/01/23 14:31:23;;;;;;;4.05;2.50;;;;;;;19.27;49.40;101776.50;5020121;28;20076;-45
2022/01/23 14:33:55;;;;;;;12.13;2.40;;;;;;;19.25;49.03;101775.03;5004414;28;20068;-49
2022/01/23 14:36:31;;;;;;;11.65;3.28;;;;;;;19.21;48.40;101774.53;5009894;28;20041;-54
2022/01/23 14:39:04;;;;;;;9.18;3.95;;;;;;;19.19;48.00;101768.59;5025067;28;20108;-47
2022/01/23 14:41:36;;;;;;;8.65;2.72;;;;;;;19.18;47.74;101781.00;5022719;28;20025;-54
2022/01/23 14:44:14;;;;;;;6.38;3.55;;;;;;;19.18;47.55;101777.53;5016554;28;20029;-41
2022/01/23 14:46:40;;;;;;;23.15;6.70;;;;;;;19.16;46.78;101777.69;5022280;28;20508;-48
2022/01/23 14:49:10;;;;;;;92.30;10.45;;;;;;;19.14;46.14;101781.50;5027205;28;20114;-42
2022/01/23 14:51:38;;;;;;;56.25;9.52;;;;;;;19.10;45.17;101782.81;5007299;28;20037;-43
2022/01/23 14:54:04;;;;;;;80.82;10.68;;;;;;;19.07;44.74;101777.88;5010272;28;20045;-56